KNYG/NYG METAR and TAF weather

Enter ICAO airport designator
Station Type Date Time Source
KNYG METAR 2020/06/05 12:56 UTC NOAA

KNYG 051256Z 20007KT 6SM HZ SCT180 26/20 A2993 RMK AO2 SLP137 T02560200


Station Type Date Time Source
KNYG Decoded METAR 2020/06/05 12:56 UTC NOAA

QUANTICO MARINE CORPS AIRFAC, VA, United States (KNYG) 38-30N 077-18W 3M
Jun 05, 2020 - 08:56 AM EDT / 2020.06.05 1256 UTC
Wind: from the SSW (200 degrees) at 8 MPH (7 KT):0
Visibility: 6 mile(s):0
Sky conditions: partly cloudy
Weather: haze
Temperature: 78.1 F (25.6 C)
Dew Point: 68.0 F (20.0 C)
Relative Humidity: 71%
Pressure (altimeter): 29.93 in. Hg (1013 hPa)
ob: KNYG 051256Z 20007KT 6SM HZ SCT180 26/20 A2993 RMK AO2 SLP137 T02560200
cycle: 13

Station Type Date Time Source
KNYG TAF 2020/06/05 09:38 UTC NOAA

TAF KNYG 0509/0609 VRB06KT 9999 SCT090 QNH2990INS
BECMG 0510/0512 23010G20KT 9999 SCT050 BKN100 QNH2982INS
FM052000 18012KT 6000 -SHRA BR BKN050 OVC100 QNH2980INS
TEMPO 0522/0603 VRB12G20KT 6000 TSRA BR BKN020CB OVC050
FM060600 VRB06KT 9999 FEW030 QNH2981INS T28/0519Z T20/0609Z

Example: see airport list